createdAt,value
2023-05-20T00:00:57.434Z,101079.06
2023-05-20T00:03:25.329Z,101079.84
2023-05-20T00:05:53.105Z,101080.41
2023-05-20T00:08:22.226Z,101092.13
2023-05-20T00:10:49.842Z,101082.56
2023-05-20T00:13:17.482Z,101083.50
2023-05-20T00:15:45.104Z,101076.34
2023-05-20T00:18:12.714Z,101076.28
2023-05-20T00:20:40.293Z,101072.63
2023-05-20T00:23:07.836Z,101072.22
2023-05-20T00:25:37.036Z,101080.22
2023-05-20T00:28:04.995Z,101079.38
2023-05-20T00:30:32.577Z,101075.00
2023-05-20T00:33:00.220Z,101079.84
2023-05-20T00:35:27.900Z,101078.34
2023-05-20T00:37:55.441Z,101071.25
2023-05-20T00:40:23.587Z,101082.78
2023-05-20T00:42:52.505Z,101077.50
2023-05-20T00:45:20.049Z,101076.59
2023-05-20T00:47:47.712Z,101070.25
2023-05-20T00:50:15.356Z,101070.50
2023-05-20T00:52:45.203Z,101069.38
2023-05-20T00:55:13.046Z,101069.25
2023-05-20T00:57:40.825Z,101069.06
2023-05-20T01:00:12.024Z,101057.50
2023-05-20T01:02:39.774Z,101060.25
2023-05-20T01:05:08.386Z,101062.31
2023-05-20T01:07:35.988Z,101058.75
2023-05-20T01:10:03.839Z,101064.75
2023-05-20T01:12:38.326Z,101063.31
2023-05-20T01:15:08.680Z,101053.50
2023-05-20T01:17:41.501Z,101055.13
2023-05-20T01:20:10.767Z,101052.78
2023-05-20T01:22:40.410Z,101055.47
2023-05-20T01:25:08.523Z,101054.97
2023-05-20T01:27:37.079Z,101051.31
2023-05-20T01:30:04.968Z,101052.19
2023-05-20T01:32:33.953Z,101053.19
2023-05-20T01:35:01.596Z,101056.69
2023-05-20T01:37:29.497Z,101047.06
2023-05-20T01:39:58.861Z,101053.28
2023-05-20T01:42:27.928Z,101046.94
2023-05-20T01:44:55.551Z,101042.53
2023-05-20T01:47:23.148Z,101048.81
2023-05-20T01:49:53.072Z,101050.56
2023-05-20T01:52:21.196Z,101053.19
2023-05-20T01:54:51.402Z,101053.09
2023-05-20T01:57:21.542Z,101051.31
2023-05-20T01:59:49.081Z,101044.34
2023-05-20T02:02:16.763Z,101038.41
2023-05-20T02:04:48.023Z,101041.56
2023-05-20T02:07:15.715Z,101043.13
2023-05-20T02:09:43.283Z,101039.03
2023-05-20T02:12:16.383Z,101042.13
2023-05-20T02:14:45.850Z,101049.25
2023-05-20T02:17:14.554Z,101047.78
2023-05-20T02:19:42.086Z,101044.34
2023-05-20T02:22:09.660Z,101039.38
2023-05-20T02:24:37.224Z,101043.41
2023-05-20T02:27:06.224Z,101036.06
2023-05-20T02:29:33.827Z,101039.75
2023-05-20T02:32:02.700Z,101027.81
2023-05-20T02:34:31.606Z,101029.66
2023-05-20T02:36:59.224Z,101031.75
2023-05-20T02:39:28.512Z,101029.53
2023-05-20T02:41:56.286Z,101027.03
2023-05-20T02:44:23.924Z,101034.44
2023-05-20T02:46:51.462Z,101029.84
2023-05-20T02:49:20.392Z,101031.13
2023-05-20T02:51:47.930Z,101039.03
2023-05-20T02:54:15.535Z,101027.81
2023-05-20T02:56:43.054Z,101031.19
2023-05-20T02:59:10.621Z,101022.56
2023-05-20T03:01:38.209Z,101026.31
2023-05-20T03:04:05.756Z,101024.25
2023-05-20T03:06:34.775Z,101031.78
2023-05-20T03:09:02.765Z,101026.03
2023-05-20T03:11:30.324Z,101039.00
2023-05-20T03:13:57.870Z,101031.84
2023-05-20T03:16:28.172Z,101027.63
2023-05-20T03:18:55.980Z,101025.44
2023-05-20T03:21:24.373Z,101027.53
2023-05-20T03:23:53.238Z,101033.06
2023-05-20T03:26:21.247Z,101030.44
2023-05-20T03:28:49.205Z,101033.13
2023-05-20T03:31:17.658Z,101033.97
2023-05-20T03:33:46.099Z,101040.63
2023-05-20T03:36:13.638Z,101042.66
2023-05-20T03:38:41.261Z,101040.31
2023-05-20T03:41:10.140Z,101049.13
2023-05-20T03:43:37.698Z,101043.00
2023-05-20T03:46:05.227Z,101035.78
2023-05-20T03:48:32.743Z,101041.28
2023-05-20T03:51:01.934Z,101047.53
2023-05-20T03:53:29.586Z,101054.47
2023-05-20T03:55:57.103Z,101052.69
2023-05-20T03:58:26.336Z,101045.66
2023-05-20T04:00:53.924Z,101058.53
2023-05-20T04:03:22.895Z,101050.03
2023-05-20T04:05:51.403Z,101044.72
2023-05-20T04:08:19.801Z,101056.03
2023-05-20T04:10:47.456Z,101054.81
2023-05-20T04:13:15.617Z,101052.75
2023-05-20T04:15:44.475Z,101056.84
2023-05-20T04:18:13.116Z,101046.63
2023-05-20T04:20:41.356Z,101053.91
2023-05-20T04:23:08.942Z,101053.28
2023-05-20T04:25:37.049Z,101053.91
2023-05-20T04:28:04.957Z,101053.69
2023-05-20T04:30:33.441Z,101053.91
2023-05-20T04:33:03.576Z,101043.03
2023-05-20T04:35:31.444Z,101043.25
2023-05-20T04:37:59.351Z,101046.94
2023-05-20T04:40:27.471Z,101050.34
2023-05-20T04:42:55.847Z,101048.97
2023-05-20T04:45:25.128Z,101046.03
2023-05-20T04:47:53.387Z,101044.25
2023-05-20T04:50:22.350Z,101030.56
2023-05-20T04:52:50.672Z,101029.56
2023-05-20T04:55:19.738Z,101034.47
2023-05-20T04:57:47.277Z,101035.53
2023-05-20T05:00:16.069Z,101035.22
2023-05-20T05:02:43.633Z,101039.75
2023-05-20T05:05:11.234Z,101045.03
2023-05-20T05:07:40.145Z,101036.78
2023-05-20T05:10:08.665Z,101038.47
2023-05-20T05:12:36.383Z,101037.53
2023-05-20T05:15:04.860Z,101041.44
2023-05-20T05:17:32.426Z,101038.81
2023-05-20T05:20:00.015Z,101039.53
2023-05-20T05:22:27.611Z,101036.16
2023-05-20T05:24:56.662Z,101036.53
2023-05-20T05:27:24.203Z,101036.59
2023-05-20T05:29:51.705Z,101024.00
2023-05-20T05:32:19.315Z,101030.69
2023-05-20T05:34:46.878Z,101032.91
2023-05-20T05:37:14.418Z,101032.78
2023-05-20T05:39:41.929Z,101029.50
2023-05-20T05:42:10.798Z,101027.88
2023-05-20T05:44:38.361Z,101027.38
2023-05-20T05:47:06.737Z,101020.88
2023-05-20T05:49:34.860Z,101019.88
2023-05-20T05:52:02.469Z,101028.06
2023-05-20T05:54:30.003Z,101020.88
2023-05-20T05:56:57.609Z,101033.25
2023-05-20T05:59:26.514Z,101030.25
2023-05-20T06:01:54.193Z,101031.66
2023-05-20T06:04:21.885Z,101030.91
2023-05-20T06:06:49.530Z,101027.94
2023-05-20T06:09:17.062Z,101024.34
2023-05-20T06:11:44.600Z,101028.28
2023-05-20T06:14:12.195Z,101027.09
2023-05-20T06:16:41.256Z,101020.88
2023-05-20T06:19:09.416Z,101018.31
2023-05-20T06:21:37.209Z,101017.06
2023-05-20T06:24:05.213Z,101017.66
2023-05-20T06:26:32.755Z,101017.44
2023-05-20T06:29:00.364Z,101013.41
2023-05-20T06:31:28.080Z,101023.78
2023-05-20T06:33:57.063Z,101015.91
2023-05-20T06:36:24.563Z,101019.38
2023-05-20T06:38:52.070Z,101019.22
2023-05-20T06:41:19.565Z,101013.31
2023-05-20T06:43:47.543Z,101012.09
2023-05-20T06:46:15.118Z,101015.50
2023-05-20T06:48:42.741Z,101012.94
2023-05-20T06:51:11.649Z,101006.19
2023-05-20T06:53:39.208Z,101017.16
2023-05-20T06:56:07.103Z,101018.16
2023-05-20T06:58:34.624Z,101013.63
2023-05-20T07:01:02.202Z,101021.56
2023-05-20T07:03:29.786Z,101020.41
2023-05-20T07:05:57.419Z,101015.69
2023-05-20T07:08:26.306Z,101022.06
2023-05-20T07:10:56.558Z,101017.25
2023-05-20T07:13:25.983Z,101021.13
2023-05-20T07:15:53.580Z,101013.25
2023-05-20T07:18:21.553Z,101012.53
2023-05-20T07:20:49.237Z,101024.50
2023-05-20T07:23:16.777Z,101012.47
2023-05-20T07:25:45.735Z,101006.13
2023-05-20T07:28:13.279Z,101006.56
2023-05-20T07:30:41.052Z,101004.41
2023-05-20T07:33:08.637Z,101000.91
2023-05-20T07:35:36.734Z,100987.88
2023-05-20T07:38:04.420Z,100987.19
2023-05-20T07:40:32.045Z,100989.38
2023-05-20T07:43:00.963Z,100985.19
2023-05-20T07:45:28.488Z,100983.72
2023-05-20T07:47:56.011Z,100985.56
2023-05-20T07:50:26.065Z,100977.66
2023-05-20T07:52:56.674Z,100974.47
2023-05-20T07:55:24.699Z,100977.16
2023-05-20T07:57:52.240Z,100973.97
2023-05-20T08:00:21.758Z,100982.31
2023-05-20T08:02:49.459Z,100964.69
2023-05-20T08:05:17.377Z,100970.06
2023-05-20T08:07:45.523Z,100970.16
2023-05-20T08:10:13.044Z,100966.88
2023-05-20T08:12:40.681Z,100968.94
2023-05-20T08:15:09.262Z,100966.91
2023-05-20T08:17:38.861Z,100972.94
2023-05-20T08:20:08.078Z,100978.03
2023-05-20T08:22:36.126Z,100975.50
2023-05-20T08:25:04.062Z,100972.25
2023-05-20T08:27:31.617Z,100972.47
2023-05-20T08:30:00.571Z,100974.66
2023-05-20T08:32:28.834Z,100960.44
2023-05-20T08:34:57.673Z,100961.53
2023-05-20T08:37:25.185Z,100969.28
2023-05-20T08:39:52.715Z,100962.88
2023-05-20T08:42:22.647Z,100962.41
2023-05-20T08:44:51.381Z,100954.16
2023-05-20T08:47:18.997Z,100959.84
2023-05-20T08:49:46.656Z,100959.78
2023-05-20T08:52:15.848Z,100955.13
2023-05-20T08:54:46.079Z,100964.69
2023-05-20T08:57:14.000Z,100961.56
2023-05-20T08:59:43.473Z,100950.25
2023-05-20T09:02:11.328Z,100958.22
2023-05-20T09:04:39.209Z,100954.19
2023-05-20T09:07:06.945Z,100956.44
2023-05-20T09:09:36.213Z,100955.28
2023-05-20T09:12:04.603Z,100967.09
2023-05-20T09:14:32.447Z,100956.44
2023-05-20T09:17:00.283Z,100948.97
2023-05-20T09:19:28.005Z,100959.53
2023-05-20T09:21:56.195Z,100963.06
2023-05-20T09:24:25.163Z,100963.66
2023-05-20T09:26:54.137Z,100956.25
2023-05-20T09:29:21.977Z,100967.91
2023-05-20T09:31:49.921Z,100966.53
2023-05-20T09:34:17.927Z,100966.72
2023-05-20T09:36:46.108Z,100963.84
2023-05-20T09:39:17.084Z,100971.00
2023-05-20T09:42:05.986Z,100964.38
2023-05-20T09:44:35.196Z,100962.84
2023-05-20T09:47:03.558Z,100966.81
2023-05-20T09:49:32.331Z,100963.00
2023-05-20T09:52:00.566Z,100961.41
2023-05-20T09:54:28.773Z,100957.00
2023-05-20T09:56:58.112Z,100954.00
2023-05-20T09:59:26.169Z,100947.16
2023-05-20T10:01:55.154Z,100948.09
2023-05-20T10:04:24.424Z,100953.28
2023-05-20T10:07:11.792Z,100958.22
2023-05-20T10:09:55.143Z,100949.63
2023-05-20T10:12:31.023Z,100958.50
2023-05-20T10:15:07.532Z,100944.69
2023-05-20T10:17:41.465Z,100945.84
2023-05-20T10:20:11.793Z,100945.63
2023-05-20T10:22:40.031Z,100950.69
2023-05-20T10:25:10.678Z,100953.28
2023-05-20T10:27:45.863Z,100936.84
2023-05-20T10:30:17.542Z,100938.38
2023-05-20T10:32:54.388Z,100934.97
2023-05-20T10:35:26.212Z,100943.59
2023-05-20T10:37:54.815Z,100933.00
2023-05-20T10:40:23.657Z,100939.06
2023-05-20T10:42:51.181Z,100932.69
2023-05-20T10:45:29.313Z,100931.22
2023-05-20T10:47:59.415Z,100918.97
2023-05-20T10:50:28.949Z,100918.78
2023-05-20T10:53:03.213Z,100923.06
2023-05-20T10:55:37.168Z,100913.09
2023-05-20T10:58:05.147Z,100913.00
2023-05-20T11:00:32.981Z,100915.41
2023-05-20T11:03:02.980Z,100908.19
2023-05-20T11:05:31.228Z,100910.84
2023-05-20T11:08:06.081Z,100908.22
2023-05-20T11:10:36.647Z,100905.31
2023-05-20T11:13:05.006Z,100903.53
2023-05-20T11:15:33.456Z,100908.91
2023-05-20T11:18:03.747Z,100902.09
2023-05-20T11:20:35.076Z,100897.56
2023-05-20T11:23:03.528Z,100899.06
2023-05-20T11:25:31.074Z,100887.44
2023-05-20T11:27:58.687Z,100901.13
2023-05-20T11:30:26.765Z,100884.44
2023-05-20T11:32:59.245Z,100872.50
2023-05-20T11:35:29.318Z,100864.00
2023-05-20T11:37:58.454Z,100877.75
2023-05-20T11:40:32.773Z,100871.44
2023-05-20T11:43:04.703Z,100857.56
2023-05-20T11:45:40.683Z,100864.06
2023-05-20T11:48:08.886Z,100864.50
2023-05-20T11:50:41.193Z,100860.72
2023-05-20T11:53:10.473Z,100860.53
2023-05-20T11:55:46.650Z,100862.25
2023-05-20T11:58:16.926Z,100855.56
2023-05-20T12:03:17.679Z,100859.19
2023-05-20T12:05:47.676Z,100855.25
2023-05-20T12:08:15.453Z,100852.34
2023-05-20T12:10:44.855Z,100836.19
2023-05-20T12:13:13.525Z,100840.06
2023-05-20T12:15:41.537Z,100835.72
2023-05-20T12:18:10.011Z,100843.88
2023-05-20T12:20:38.370Z,100840.25
2023-05-20T12:23:07.325Z,100825.88
2023-05-20T12:25:34.850Z,100835.91
2023-05-20T12:28:03.391Z,100816.38
2023-05-20T12:30:31.014Z,100824.72
2023-05-20T12:32:58.657Z,100813.16
2023-05-20T12:35:27.377Z,100806.19
2023-05-20T12:37:55.031Z,100809.53
2023-05-20T12:40:23.924Z,100807.59
2023-05-20T12:42:51.439Z,100800.91
2023-05-20T12:45:19.040Z,100804.91
2023-05-20T12:47:46.650Z,100807.63
2023-05-20T12:50:14.200Z,100808.13
2023-05-20T12:52:41.730Z,100781.97
2023-05-20T12:55:13.717Z,100787.09
2023-05-20T12:57:42.962Z,100780.47
2023-05-20T13:00:11.342Z,100783.38
2023-05-20T13:02:40.092Z,100773.59
2023-05-20T13:05:08.846Z,100795.94
2023-05-20T13:07:36.827Z,100781.00
2023-05-20T13:10:04.874Z,100785.28
2023-05-20T13:12:32.400Z,100778.72
2023-05-20T13:15:01.292Z,100786.00
2023-05-20T13:17:29.390Z,100775.69
2023-05-20T13:19:56.953Z,100784.22
2023-05-20T13:22:24.490Z,100776.19
2023-05-20T13:24:52.003Z,100769.53
2023-05-20T13:27:19.573Z,100777.00
2023-05-20T13:29:47.135Z,100775.19
2023-05-20T13:32:16.025Z,100761.16
2023-05-20T13:34:43.545Z,100767.59
2023-05-20T13:37:11.153Z,100750.16
2023-05-20T13:39:38.676Z,100750.94
2023-05-20T13:42:06.722Z,100749.09
2023-05-20T13:44:34.249Z,100749.44
2023-05-20T13:47:01.973Z,100746.44
2023-05-20T13:49:31.015Z,100744.53
2023-05-20T13:51:58.572Z,100733.50
2023-05-20T13:54:26.244Z,100739.34
2023-05-20T13:56:54.074Z,100731.19
2023-05-20T13:59:21.694Z,100724.25
2023-05-20T14:01:51.412Z,100714.53
2023-05-20T14:04:18.990Z,100709.28
2023-05-20T14:06:47.856Z,100721.47
2023-05-20T14:09:15.445Z,100718.25
2023-05-20T14:11:43.115Z,100702.19
2023-05-20T14:14:10.881Z,100721.78
2023-05-20T14:16:39.455Z,100715.63
2023-05-20T14:19:08.939Z,100709.06
2023-05-20T14:21:36.692Z,100707.03
2023-05-20T14:24:06.424Z,100696.09
2023-05-20T14:26:34.319Z,100690.28
2023-05-20T14:29:01.861Z,100682.56
2023-05-20T14:31:29.391Z,100676.34
2023-05-20T14:33:56.922Z,100689.72
2023-05-20T14:36:24.459Z,100672.63
2023-05-20T14:38:51.976Z,100670.97
2023-05-20T14:41:22.312Z,100671.78
2023-05-20T14:43:49.902Z,100679.00
2023-05-20T14:46:17.454Z,100680.91
2023-05-20T14:48:44.988Z,100675.56
2023-05-20T14:51:13.008Z,100675.84
2023-05-20T14:53:40.537Z,100681.72
2023-05-20T14:56:08.076Z,100671.03
2023-05-20T14:58:37.236Z,100673.44
2023-05-20T15:01:04.864Z,100664.78
2023-05-20T15:03:32.491Z,100667.25
2023-05-20T15:06:00.123Z,100675.22
2023-05-20T15:08:27.662Z,100662.38
2023-05-20T15:10:55.213Z,100656.84
2023-05-20T15:13:22.786Z,100672.63
2023-05-20T15:15:51.815Z,100670.44
2023-05-20T15:18:19.348Z,100662.84
2023-05-20T15:20:46.889Z,100654.34
2023-05-20T15:23:14.400Z,100654.47
2023-05-20T15:25:42.033Z,100656.06
2023-05-20T15:28:09.559Z,100647.41
2023-05-20T15:30:37.267Z,100654.34
2023-05-20T15:33:06.613Z,100653.00
2023-05-20T15:35:34.252Z,100655.94
2023-05-20T15:38:01.765Z,100653.59
2023-05-20T15:40:29.312Z,100637.38
2023-05-20T15:42:57.112Z,100638.06
2023-05-20T15:45:24.655Z,100626.25
2023-05-20T15:47:52.208Z,100627.63
2023-05-20T15:50:22.849Z,100628.81
2023-05-20T15:52:52.347Z,100617.75
2023-05-20T15:55:20.010Z,100621.72
2023-05-20T15:57:47.532Z,100609.63
2023-05-20T16:00:16.144Z,100619.53
2023-05-20T16:02:43.925Z,100617.41
2023-05-20T16:05:11.727Z,100611.13
2023-05-20T16:07:40.854Z,100602.13
2023-05-20T16:10:11.931Z,100603.59
2023-05-20T16:12:41.385Z,100603.06
2023-05-20T16:15:11.579Z,100597.78
2023-05-20T16:17:39.999Z,100590.09
2023-05-20T16:20:09.687Z,100591.84
2023-05-20T16:22:39.036Z,100581.28
2023-05-20T16:25:10.994Z,100581.94
2023-05-20T16:27:38.917Z,100580.94
2023-05-20T16:30:09.413Z,100590.22
2023-05-20T16:32:37.550Z,100592.75
2023-05-20T16:35:07.036Z,100584.38
2023-05-20T16:37:36.325Z,100581.97
2023-05-20T16:40:04.976Z,100584.53
2023-05-20T16:42:34.923Z,100585.81
2023-05-20T16:45:03.468Z,100580.94
2023-05-20T16:47:33.133Z,100583.72
2023-05-20T16:50:00.739Z,100595.81
2023-05-20T16:52:28.297Z,100592.53
2023-05-20T16:54:57.282Z,100585.53
2023-05-20T16:57:24.814Z,100587.22
2023-05-20T16:59:53.828Z,100586.84
2023-05-20T17:02:21.332Z,100581.88
2023-05-20T17:04:49.424Z,100575.06
2023-05-20T17:07:17.065Z,100574.38
2023-05-20T17:09:44.705Z,100581.91
2023-05-20T17:12:12.234Z,100588.16
2023-05-20T17:14:39.749Z,100596.84
2023-05-20T17:17:09.370Z,100596.94
2023-05-20T17:19:37.057Z,100588.88
2023-05-20T17:22:04.766Z,100590.56
2023-05-20T17:24:33.039Z,100598.63
2023-05-20T17:27:03.341Z,100591.91
2023-05-20T17:29:31.533Z,100578.84
2023-05-20T17:31:59.059Z,100583.38
2023-05-20T17:34:27.886Z,100590.78
2023-05-20T17:36:57.128Z,100578.66
2023-05-20T17:39:24.648Z,100577.59
2023-05-20T17:41:52.195Z,100586.75
2023-05-20T17:44:19.679Z,100576.78
2023-05-20T17:46:48.664Z,100577.63
2023-05-20T17:49:16.835Z,100569.50
2023-05-20T17:51:46.292Z,100568.84
2023-05-20T17:54:14.082Z,100570.66
2023-05-20T17:56:41.998Z,100572.09
2023-05-20T17:59:09.739Z,100568.91
2023-05-20T18:01:37.429Z,100575.06
2023-05-20T18:04:05.869Z,100578.63
2023-05-20T18:06:34.409Z,100590.44
2023-05-20T18:09:04.670Z,100579.22
2023-05-20T18:11:32.792Z,100586.19
2023-05-20T18:14:00.378Z,100573.31
2023-05-20T18:16:28.194Z,100585.69
2023-05-20T18:18:55.856Z,100586.03
2023-05-20T18:21:24.718Z,100595.91
2023-05-20T18:23:52.342Z,100598.25
2023-05-20T18:26:21.500Z,100592.78
2023-05-20T18:28:49.908Z,100596.13
2023-05-20T18:31:17.467Z,100595.13
2023-05-20T18:33:45.019Z,100599.63
2023-05-20T18:36:12.597Z,100595.53
2023-05-20T18:38:41.739Z,100590.84
2023-05-20T18:41:09.636Z,100591.25
2023-05-20T18:43:38.485Z,100594.94
2023-05-20T18:46:06.292Z,100605.78
2023-05-20T18:48:33.931Z,100610.16
2023-05-20T18:51:01.474Z,100606.75
2023-05-20T18:53:28.981Z,100605.63
2023-05-20T18:56:01.097Z,100613.88
2023-05-20T18:58:28.606Z,100610.88
2023-05-20T19:00:57.473Z,100624.09
2023-05-20T19:03:25.272Z,100626.31
2023-05-20T19:05:52.849Z,100621.50
2023-05-20T19:08:20.541Z,100619.41
2023-05-20T19:10:48.063Z,100614.00
2023-05-20T19:13:15.611Z,100617.50
2023-05-20T19:15:43.518Z,100612.88
2023-05-20T19:18:14.172Z,100619.81
2023-05-20T19:20:41.817Z,100616.41
2023-05-20T19:23:09.781Z,100623.31
2023-05-20T19:25:37.710Z,100621.53
2023-05-20T19:28:05.757Z,100621.00
2023-05-20T19:30:33.615Z,100623.91
2023-05-20T19:33:02.121Z,100620.28
2023-05-20T19:35:31.340Z,100620.84
2023-05-20T19:37:59.104Z,100625.66
2023-05-20T19:40:26.826Z,100623.28
2023-05-20T19:42:54.389Z,100631.72
2023-05-20T19:45:23.237Z,100627.44
2023-05-20T19:47:51.043Z,100629.00
2023-05-20T19:50:18.590Z,100636.03
2023-05-20T19:52:47.456Z,100633.16
2023-05-20T19:55:15.372Z,100633.75
2023-05-20T19:57:45.029Z,100627.75
2023-05-20T20:00:13.783Z,100628.22
2023-05-20T20:02:41.504Z,100630.63
2023-05-20T20:05:09.879Z,100629.41
2023-05-20T20:07:37.511Z,100626.56
2023-05-20T20:10:08.038Z,100623.03
2023-05-20T20:12:35.565Z,100624.66
2023-05-20T20:15:03.827Z,100622.13
2023-05-20T20:17:34.029Z,100621.66
2023-05-20T20:20:01.680Z,100627.91
2023-05-20T20:22:29.251Z,100617.53
2023-05-20T20:24:56.765Z,100618.53
2023-05-20T20:27:25.611Z,100617.06
2023-05-20T20:29:53.133Z,100615.94
2023-05-20T20:32:20.694Z,100615.47
2023-05-20T20:34:48.285Z,100613.13
2023-05-20T20:37:15.940Z,100613.06
2023-05-20T20:39:45.216Z,100619.38
2023-05-20T20:42:12.732Z,100617.00
2023-05-20T20:44:42.644Z,100611.84
2023-05-20T20:47:10.316Z,100616.38
2023-05-20T20:49:37.995Z,100614.44
2023-05-20T20:52:06.019Z,100611.03
2023-05-20T20:54:34.106Z,100611.16
2023-05-20T20:57:02.626Z,100607.78
2023-05-20T20:59:30.279Z,100607.97
2023-05-20T21:01:59.221Z,100606.31
2023-05-20T21:04:27.866Z,100598.59
2023-05-20T21:06:55.636Z,100595.53
2023-05-20T21:09:23.428Z,100586.31
2023-05-20T21:11:50.939Z,100585.84
2023-05-20T21:14:18.473Z,100585.13
2023-05-20T21:16:46.047Z,100581.50
2023-05-20T21:19:15.085Z,100589.50
2023-05-20T21:21:42.656Z,100583.94
2023-05-20T21:24:10.166Z,100587.28
2023-05-20T21:26:37.689Z,100584.25
2023-05-20T21:29:06.016Z,100574.94
2023-05-20T21:31:33.573Z,100575.97
2023-05-20T21:34:01.128Z,100581.34
2023-05-20T21:36:32.881Z,100585.78
2023-05-20T21:39:00.622Z,100576.44
2023-05-20T21:41:28.194Z,100571.44
2023-05-20T21:43:55.860Z,100577.69
2023-05-20T21:46:23.597Z,100571.88
2023-05-20T21:48:51.282Z,100566.75
2023-05-20T21:51:18.889Z,100568.63
2023-05-20T21:53:47.744Z,100565.81
2023-05-20T21:56:15.645Z,100568.41
2023-05-20T21:58:43.191Z,100561.38
2023-05-20T22:01:10.793Z,100563.50
2023-05-20T22:03:39.861Z,100556.31
2023-05-20T22:06:07.654Z,100557.41
2023-05-20T22:08:35.236Z,100560.28
2023-05-20T22:11:07.286Z,100562.34
2023-05-20T22:13:36.219Z,100551.66
2023-05-20T22:16:04.952Z,100553.91
2023-05-20T22:18:32.785Z,100559.44
2023-05-20T22:21:01.005Z,100551.44
2023-05-20T22:23:29.267Z,100551.38
2023-05-20T22:25:57.270Z,100555.00
2023-05-20T22:28:26.185Z,100554.06
2023-05-20T22:30:54.663Z,100547.78
2023-05-20T22:33:24.372Z,100538.69
2023-05-20T22:35:53.505Z,100533.47
2023-05-20T22:38:21.267Z,100534.22
2023-05-20T22:40:48.978Z,100531.47
2023-05-20T22:43:16.550Z,100532.66
2023-05-20T22:45:45.452Z,100530.72
2023-05-20T22:48:13.372Z,100520.78
2023-05-20T22:50:41.372Z,100511.13
2023-05-20T22:53:08.926Z,100509.03
2023-05-20T22:55:38.710Z,100510.75
2023-05-20T22:58:07.912Z,100515.28
2023-05-20T23:00:35.412Z,100506.31
2023-05-20T23:03:04.359Z,100507.34
2023-05-20T23:05:31.937Z,100512.88
2023-05-20T23:07:59.856Z,100504.94
2023-05-20T23:10:27.423Z,100509.59
2023-05-20T23:12:54.963Z,100502.19
2023-05-20T23:15:24.300Z,100502.56
2023-05-20T23:17:52.362Z,100499.13
2023-05-20T23:20:22.254Z,100500.25
2023-05-20T23:22:49.797Z,100504.81
2023-05-20T23:25:17.449Z,100497.75
2023-05-20T23:27:44.964Z,100500.31
2023-05-20T23:30:12.767Z,100501.47
2023-05-20T23:32:40.315Z,100489.09
2023-05-20T23:35:11.497Z,100500.91
2023-05-20T23:37:41.027Z,100490.09
2023-05-20T23:40:10.165Z,100502.78
2023-05-20T23:42:37.724Z,100488.56
2023-05-20T23:45:05.918Z,100485.88
2023-05-20T23:47:34.307Z,100490.44
2023-05-20T23:50:02.215Z,100488.75
2023-05-20T23:52:29.819Z,100486.06
2023-05-20T23:54:59.895Z,100486.94
2023-05-20T23:57:27.762Z,100483.38
2023-05-20T23:59:55.494Z,100480.81
